Station: Point Cook  

  Atmospheric Gas Attenuation - ITU Rec 676-11   ----------------- dB/100km -----------------
Date Time Temp RH % AH g/m3 Dew Point Wind Direction Speed kph Gust kph Barometer mB Rainfall Since 9am 24GHz 47GHz 76GHz 122GHz 134GHz 241GHz
08/05 12:30 16.1 67 9.18 10 20 28 1023.3 0 20.7 26.5 41.4 108.6 103.9 357.9
08/05 12:20 15.7 68 9.1 9.8 30 32 1023.4 0 20.5 26.5 41.3 108.3 103.4 356.1
08/05 12:10 16 66 8.99 9.8 26 32 1023.5 0 20.3 26.3 40.7 106.7 101.5 349.7
08/05 12:00 16.7 67 9.52 10.5 26 33 1023.5 0 21.4 26.9 42.5 111.4 107.6 370.9
08/05 11:50 16.1 71 9.73 10.8 24 30 1023.5 0 21.9 27.4 43.6 114.6 111.2 383.5
08/05 11:40 15.5 70 9.25 10 32 35 1023.5 0 20.9 26.8 42.0 110.2 105.6 364.0
08/05 11:30 16 67 9.13 9.9 28 41 1023.4 0 20.6 26.5 41.3 108.2 103.4 356.1
08/05 11:20 14.9 75 9.56 10.5 28 33 1023.3 0 21.6 27.5 43.6 114.4 110.6 381.3
08/05 11:10 15.4 72 9.46 10.5 30 37 1023.5 0 21.3 27.2 42.9 112.6 108.6 374.2
08/05 11:00 16 73 9.95 11.2 24 33 1023.4 0 22.3 27.8 44.6 117.1 114.3 394.4
08/05 10:50 15.5 75 9.91 11.1 24 28 1023.2 0 22.3 27.9 44.7 117.4 114.5 394.9
08/05 10:40 15 74 9.49 10.4 22 30 1023.2 0 21.4 27.4 43.2 113.5 109.5 377.5
08/05 10:30 15.2 74 9.6 10.6 30 39 1023.1 0 21.6 27.5 43.6 114.4 110.7 381.7
08/05 10:20 14.8 74 9.37 10.2 26 35 1023.2 0 21.2 27.2 42.9 112.5 108.2 372.8
08/05 10:10 15.2 73 9.48 10.4 20 24 1023 0 21.4 27.3 43.1 113.1 109.1 376.0
08/05 10:00 15.2 73 9.48 10.4 22 30 1022.8 0 21.4 27.3 43.1 113.1 109.1 375.9
08/05 09:50 15.4 72 9.46 10.5 24 28 1022.7 0 21.3 27.2 42.9 112.5 108.5 374.0
08/05 09:40 14.8 74 9.37 10.2 28 32 1022.6 0 21.2 27.2 42.8 112.4 108.1 372.6
08/05 09:30 14.9 76 9.69 10.7 24 33 1022.4 0 21.8 27.7 44.1 115.8 112.3 387.2
08/05 09:20 14.5 77 9.58 10.5 24 28 1022.3 0 21.6 27.6 43.8 115.1 111.4 383.9
08/05 09:10 14.2 78 9.52 10.4 24 28 1022.3 0 21.5 27.6 43.8 114.9 111.0 382.5
08/05 09:00 14 81 9.77 10.8 22 35 1022.2 0 22.1 28.1 44.9 118.0 114.7 395.5
08/05 08:50 13.2 82 9.42 10.2 22 26 1022.4 3.8 21.4 27.8 43.9 115.3 111.1 382.7
08/05 08:40 13.5 82 9.59 10.6 24 33 1022.4 3.8 21.7 28.0 44.4 116.7 113.0 389.4
08/05 08:30 13.2 84 9.65 10.6 22 28 1022.2 3.8 21.9 28.2 44.9 117.8 114.2 393.7
08/05 08:20 12.9 86 9.69 10.6 22 26 1022 3.8 22.0 28.3 45.2 118.7 115.2 397.2
08/05 08:10 12.4 87 9.51 10.3 17 19 1022.1 3.8 21.6 28.2 44.7 117.4 113.5 390.9
08/05 08:00 12.4 87 9.51 10.3 17 26 1022.1 3.8 21.6 28.2 44.7 117.4 113.5 390.9
08/05 07:50 12.3 87 9.45 10.2 17 19 1021.9 3.8 21.5 28.1 44.5 116.9 112.8 388.4
08/05 07:40 12.1 87 9.33 10 17 20 1021.6 3.8 21.2 27.9 44.1 115.8 111.3 383.5
08/05 07:30 12 88 9.38 10.1 19 26 1021.3 3.8 21.3 28.1 44.4 116.5 112.2 386.3
08/05 07:20 12.2 87 9.39 10.2 19 24 1021.3 3.8 21.4 28.0 44.3 116.3 112.0 385.8
08/05 07:10 12.1 89 9.55 10.3 17 20 1021.3 3.8 21.7 28.3 45.0 118.3 114.4 394.2
08/05 07:00 12.1 90 9.65 10.5 20 28 1021.2 3.8 21.9 28.5 45.5 119.4 115.8 399.1
08/05 06:50 12.3 89 9.67 10.5 20 24 1021.2 3.8 21.9 28.4 45.4 119.3 115.8 399.0
08/05 06:40 12.4 87 9.51 10.3 24 28 1021 3.8 21.6 28.1 44.7 117.3 113.4 390.6
08/05 06:30 12.5 86 9.46 10.2 22 32 1021 3.8 21.5 28.0 44.4 116.6 112.5 387.6
08/05 06:20 12.8 84 9.41 10.1 19 24 1021 3.8 21.4 27.8 44.0 115.6 111.4 383.7
08/05 06:10 12.8 82 9.19 9.9 19 22 1020.9 3.8 20.9 27.5 43.1 113.1 108.3 373.1
08/05 06:00 12.9 83 9.36 10.1 22 32 1020.7 3.8 21.3 27.7 43.7 114.8 110.5 380.7
08/05 05:50 13 82 9.3 10.1 26 32 1020.6 3.8 21.1 27.6 43.4 114.0 109.5 377.3
08/05 05:40 13 82 9.3 10.1 24 30 1020.5 3.8 21.1 27.6 43.4 114.0 109.5 377.3
08/05 05:30 13 83 9.41 10.2 22 32 1020.5 3.8 21.4 27.8 43.9 115.2 111.1 382.6
08/05 05:20 13.1 82 9.36 10.1 26 32 1020.4 3.8 21.2 27.6 43.6 114.5 110.2 379.6
08/05 05:10 13.2 82 9.42 10.2 26 33 1020.3 3.8 21.4 27.7 43.8 115.0 110.9 382.0
08/05 05:00 13.2 82 9.42 10.2 28 39 1020.1 3.8 21.4 27.7 43.8 115.0 110.9 382.0
08/05 04:50 13.2 82 9.42 10.2 32 37 1020.1 3.8 21.4 27.7 43.8 115.0 110.9 382.0
08/05 04:40 13.1 82 9.36 10.2 28 35 1020.1 3.8 21.2 27.6 43.6 114.5 110.2 379.6
08/05 04:30 12.9 84 9.47 10.3 20 30 1020.1 3.8 21.5 27.9 44.2 116.0 112.0 385.9
08/05 04:20 12.8 85 9.52 10.3 19 22 1020 3.8 21.6 28.0 44.4 116.7 112.8 388.8
08/05 04:10 12.9 85 9.58 10.4 22 32 1019.8 3.8 21.7 28.0 44.6 117.2 113.5 391.1
08/05 04:00 12.9 84 9.47 10.3 24 33 1019.6 3.8 21.5 27.9 44.1 116.0 111.9 385.7
08/05 03:50 12.9 84 9.47 10.2 24 30 1019.6 3.8 21.5 27.9 44.1 116.0 111.9 385.7
08/05 03:40 12.9 84 9.47 10.2 20 26 1019.6 3.8 21.5 27.9 44.1 116.0 111.9 385.7
08/05 03:30 12.8 84 9.41 10.2 24 37 1019.6 3.8 21.4 27.8 44.0 115.4 111.3 383.3
08/05 03:20 12.7 83 9.24 10 24 30 1019.4 3.8 21.0 27.5 43.3 113.7 109.0 375.5
08/05 03:10 12.6 83 9.18 9.9 28 33 1019.5 3.8 20.9 27.5 43.1 113.1 108.4 373.1
08/05 03:00 12.5 84 9.24 9.9 24 32 1019.5 3.8 21.0 27.6 43.4 114.0 109.3 376.5
08/05 02:50 12.6 83 9.18 9.9 26 33 1019.5 3.8 20.9 27.5 43.1 113.1 108.4 373.1
08/05 02:40 12.6 83 9.18 9.8 22 28 1019.5 3.8 20.9 27.5 43.1 113.1 108.4 373.1
08/05 02:30 12.6 83 9.18 9.8 24 35 1019.5 3.8 20.9 27.5 43.1 113.1 108.4 373.1
08/05 02:20 12.5 82 9.02 9.5 28 33 1019.6 3.8 20.5 27.2 42.5 111.5 106.3 365.9
08/05 02:10 12.5 83 9.13 9.7 24 28 1019.7 3.8 20.8 27.4 42.9 112.7 107.8 371.2
08/05 02:00 12.5 82 9.02 9.5 24 37 1019.6 3.8 20.5 27.2 42.5 111.5 106.3 365.9
08/05 01:50 12.4 82 8.96 9.4 26 28 1019.7 3.8 20.4 27.2 42.3 111.0 105.6 363.6
08/05 01:40 12.5 81 8.91 9.3 39 44 1019.6 3.8 20.3 27.0 42.0 110.3 104.8 360.7
08/05 01:30 12.5 81 8.91 9.3 32 44 1019.7 3.8 20.3 27.0 42.0 110.3 104.8 360.7
08/05 01:20 12.4 81 8.85 9.2 24 30 1020.1 3.8 20.2 27.0 41.9 109.8 104.2 358.4
08/05 01:10 12.1 83 8.9 9.3 26 39 1020.1 3.8 20.3 27.2 42.2 110.8 105.3 362.2
08/05 01:00 12.1 82 8.79 9.1 26 35 1020 3.8 20.1 27.0 41.8 109.6 103.7 356.9
08/05 00:50 12.2 82 8.85 9.2 24 32 1020.1 3.8 20.2 27.0 42.0 110.1 104.4 359.3
08/05 00:40 11.9 82 8.69 8.9 20 28 1020.1 3.8 19.9 26.9 41.5 108.7 102.6 353.0
08/05 00:30 12.1 81 8.69 8.9 28 39 1020.2 3.8 19.9 26.8 41.4 108.5 102.4 352.2
08/05 00:20 12 81 8.63 8.8 28 33 1020.2 3.8 19.7 26.7 41.2 107.9 101.7 349.7
08/05 00:10 12 81 8.63 8.8 28 32 1020.4 3.8 19.7 26.7 41.2 108.0 101.7 349.8
08/05 00:00 11.9 81 8.58 8.7 30 44 1020.4 3.8 19.6 26.7 41.0 107.6 101.2 347.9
07/05 23:50 12 80 8.53 8.6 32 37 1020.3 3.8 19.5 26.6 40.7 106.9 100.4 345.0
07/05 23:40 11.9 80 8.47 8.5 30 33 1020.4 3.8 19.4 26.5 40.6 106.3 99.7 342.6
07/05 23:30 11.9 80 8.47 8.6 30 41 1020.5 3.8 19.4 26.5 40.6 106.4 99.7 342.7
07/05 23:20 11.8 80 8.42 8.4 26 33 1020.7 3.8 19.3 26.5 40.4 106.0 99.2 340.8
07/05 23:10 11.8 80 8.42 8.4 22 30 1021 3.8 19.3 26.5 40.4 106.0 99.2 340.9
07/05 23:00 11.7 80 8.37 8.4 26 39 1021.3 3.8 19.2 26.4 40.3 105.6 98.7 339.0
07/05 22:50 11.7 78 8.16 8.1 24 32 1021.1 3.8 18.7 26.1 39.4 103.3 95.8 329.0
07/05 22:40 11.6 79 8.21 8.2 24 30 1021.3 3.8 18.9 26.2 39.7 104.0 96.6 331.9
07/05 22:30 11.5 80 8.26 8.2 24 41 1021.5 3.8 19.0 26.3 39.9 104.7 97.4 334.7
07/05 22:20 11.4 79 8.11 8 26 39 1021.5 3.8 18.6 26.1 39.4 103.2 95.5 328.0
07/05 22:10 11.4 79 8.11 7.9 24 30 1021.6 3.8 18.6 26.1 39.4 103.2 95.5 328.1
07/05 22:00 11.3 79 8.06 7.8 26 39 1021.6 3.8 18.5 26.1 39.2 102.8 95.0 326.1
07/05 21:50 11.3 79 8.06 7.8 22 30 1021.5 3.8 18.5 26.1 39.2 102.8 95.0 326.1
07/05 21:40 11.1 79 7.96 7.6 20 26 1021.7 3.8 18.3 26.0 38.9 102.0 93.9 322.3
07/05 21:30 11.1 79 7.96 7.6 24 35 1021.7 3.8 18.3 26.0 38.9 102.0 93.9 322.3
07/05 21:20 11.1 79 7.96 7.6 28 33 1021.7 3.8 18.3 26.0 38.9 102.0 93.9 322.3
07/05 21:10 11.1 79 7.96 7.6 26 33 1021.7 3.8 18.3 26.0 38.9 102.0 93.9 322.3
07/05 21:00 11.1 79 7.96 7.6 22 32 1021.7 3.8 18.3 26.0 38.9 102.0 93.9 322.3
07/05 20:50 11 79 7.91 7.5 22 32 1021.7 3.8 18.2 25.9 38.8 101.5 93.3 320.3
07/05 20:40 11 78 7.81 7.3 24 28 1022 3.8 18.0 25.7 38.4 100.5 92.0 315.7
07/05 20:30 11 78 7.81 7.3 22 32 1022 3.8 18.0 25.7 38.4 100.5 92.0 315.7
07/05 20:20 11.1 77 7.76 7.2 22 28 1022 3.8 17.9 25.6 38.1 99.8 91.2 312.9
07/05 20:10 11 78 7.81 7.3 28 30 1022.1 3.8 18.0 25.8 38.4 100.5 92.0 315.7
07/05 20:00 10.9 79 7.86 7.4 22 35 1022.4 3.8 18.1 25.9 38.6 101.2 92.8 318.5

Last Refresh: 08-May-2026 12:08:03

Bureau of Meteorology